Time;durP1;ratioP1;P1;durP2;ratioP2;P2;SDS_P1;SDS_P2;PMS_P1;PMS_P2;Temp;Humidity;BMP_temperature;BMP_pressure;BME280_temperature;BME280_humidity;BME280_pressure;Samples;Min_cycle;Max_cycle;Signal;HPM_P1;HPM_P2
2023/05/10 03:38:47;;;;;;;29.07;27.10;;;14.20;99.90;;;;;;4980335;26;20504;-75
2023/05/10 03:41:14;;;;;;;27.87;26.50;;;14.20;99.90;;;;;;4992016;28;20844;-75
2023/05/10 03:43:41;;;;;;;26.60;25.40;;;14.20;99.90;;;;;;4991845;28;20862;-75
2023/05/10 03:46:07;;;;;;;27.20;26.00;;;14.30;99.90;;;;;;4992180;28;20455;-75
2023/05/10 03:48:34;;;;;;;26.70;25.40;;;14.30;99.90;;;;;;4991691;28;20450;-75
2023/05/10 03:51:01;;;;;;;27.30;26.00;;;14.30;99.90;;;;;;4991425;28;20478;-74
2023/05/10 03:53:28;;;;;;;26.50;25.30;;;14.30;99.90;;;;;;4991743;28;20505;-75
2023/05/10 03:55:56;;;;;;;26.70;25.50;;;14.30;99.90;;;;;;4991484;28;20501;-74
2023/05/10 03:58:23;;;;;;;28.50;26.43;;;14.30;99.90;;;;;;4991483;28;20454;-74
2023/05/10 04:00:49;;;;;;;25.30;24.10;;;14.30;99.90;;;;;;4991255;28;20462;-73
2023/05/10 04:03:16;;;;;;;25.30;24.10;;;14.30;99.90;;;;;;4991015;28;20451;-74
2023/05/10 04:05:43;;;;;;;25.80;24.60;;;14.40;99.90;;;;;;4991229;28;20458;-73
2023/05/10 04:08:10;;;;;;;26.33;25.13;;;14.40;99.90;;;;;;4991012;28;20561;-74
2023/05/10 04:10:37;;;;;;;24.30;23.20;;;14.20;99.90;;;;;;4991318;28;20454;-73
2023/05/10 04:13:05;;;;;;;25.53;24.20;;;14.40;99.90;;;;;;4990765;28;20491;-74
2023/05/10 04:15:31;;;;;;;24.43;22.93;;;14.30;99.90;;;;;;4990921;28;20459;-74
2023/05/10 04:17:58;;;;;;;22.03;21.13;;;14.30;99.90;;;;;;4990582;28;20525;-73
2023/05/10 04:20:25;;;;;;;22.40;21.40;;;14.20;99.90;;;;;;4990875;28;20454;-73
2023/05/10 04:22:51;;;;;;;21.20;20.40;;;14.20;99.90;;;;;;4990809;28;20459;-73
2023/05/10 04:25:18;;;;;;;21.77;20.87;;;14.10;99.90;;;;;;4990767;28;20459;-73
2023/05/10 04:27:45;;;;;;;20.70;19.90;;;14.30;99.90;;;;;;4990516;28;20459;-73
2023/05/10 04:30:13;;;;;;;19.20;18.50;;;14.10;99.90;;;;;;4990685;28;20450;-73
2023/05/10 04:32:40;;;;;;;18.73;18.03;;;14.40;99.90;;;;;;4990828;28;20493;-73
2023/05/10 04:35:07;;;;;;;18.90;18.10;;;14.50;99.90;;;;;;4990879;28;20959;-75
2023/05/10 04:37:34;;;;;;;18.30;17.60;;;14.50;99.90;;;;;;4990473;28;20558;-74
2023/05/10 04:40:00;;;;;;;17.63;17.00;;;14.50;99.90;;;;;;4990359;28;20454;-74
2023/05/10 04:42:27;;;;;;;17.80;17.00;;;14.60;99.90;;;;;;4990560;28;20442;-74
2023/05/10 04:44:54;;;;;;;17.20;16.60;;;14.70;99.90;;;;;;4990744;28;20455;-74
2023/05/10 04:47:22;;;;;;;16.73;16.13;;;14.70;99.90;;;;;;4990723;28;20446;-74
2023/05/10 04:49:49;;;;;;;16.90;16.30;;;14.80;99.90;;;;;;4990450;28;20537;-74
2023/05/10 04:52:17;;;;;;;16.27;15.77;;;14.90;99.90;;;;;;4990098;28;20720;-74
2023/05/10 04:54:43;;;;;;;15.70;15.03;;;14.90;99.90;;;;;;4990358;28;20455;-74
2023/05/10 04:57:10;;;;;;;16.13;15.53;;;14.90;99.90;;;;;;4990583;28;20454;-74
2023/05/10 04:59:37;;;;;;;15.50;15.00;;;14.80;99.90;;;;;;4992139;28;20455;-75
2023/05/10 05:02:04;;;;;;;15.33;14.83;;;15.00;99.90;;;;;;4991007;28;20963;-74
2023/05/10 05:04:32;;;;;;;15.10;14.50;;;15.10;99.90;;;;;;4990970;28;20972;-74
2023/05/10 05:06:59;;;;;;;15.60;15.10;;;15.30;99.90;;;;;;4991122;28;20904;-75
2023/05/10 05:09:26;;;;;;;16.07;15.57;;;15.50;99.90;;;;;;4990969;28;20537;-74
2023/05/10 05:11:53;;;;;;;16.93;15.23;;;15.50;99.90;;;;;;4991804;28;20510;-73
2023/05/10 05:14:20;;;;;;;16.27;15.40;;;15.60;99.90;;;;;;4990520;28;20455;-73
2023/05/10 05:16:47;;;;;;;14.53;14.03;;;15.70;99.90;;;;;;4990570;28;20458;-74
2023/05/10 05:19:14;;;;;;;14.67;14.17;;;16.10;99.90;;;;;;4990799;28;20459;-74
2023/05/10 05:21:42;;;;;;;14.83;14.23;;;16.40;99.90;;;;;;4990931;28;20443;-74
2023/05/10 05:24:10;;;;;;;14.50;13.80;;;16.50;99.90;;;;;;4990754;28;20528;-74
2023/05/10 05:26:37;;;;;;;16.00;15.20;;;16.40;99.90;;;;;;4992263;28;20455;-75
2023/05/10 05:29:04;;;;;;;15.00;14.50;;;16.40;99.90;;;;;;4992216;28;20485;-75
2023/05/10 05:31:31;;;;;;;15.40;14.90;;;16.80;99.90;;;;;;4990797;28;20454;-75
2023/05/10 05:33:57;;;;;;;15.10;14.60;;;16.90;99.90;;;;;;4990856;28;20490;-75
2023/05/10 05:36:24;;;;;;;15.73;15.23;;;16.70;99.90;;;;;;4991232;28;20484;-75
2023/05/10 05:38:52;;;;;;;14.50;14.00;;;17.00;99.90;;;;;;4990753;28;20462;-75
2023/05/10 05:41:19;;;;;;;14.60;14.10;;;17.10;99.90;;;;;;4987557;28;20553;-75
2023/05/10 05:43:46;;;;;;;15.67;15.07;;;17.20;99.90;;;;;;4990714;28;20447;-75
2023/05/10 05:46:13;;;;;;;14.73;14.23;;;17.30;99.90;;;;;;4990204;28;20474;-75
2023/05/10 05:48:40;;;;;;;15.47;14.87;;;17.40;99.90;;;;;;4991038;28;20443;-75
2023/05/10 05:51:07;;;;;;;15.40;14.60;;;17.50;99.90;;;;;;4990640;28;20851;-75
2023/05/10 05:53:33;;;;;;;14.70;14.10;;;17.50;99.90;;;;;;4990824;28;20820;-75
2023/05/10 05:56:03;;;;;;;14.70;14.20;;;17.60;99.90;;;;;;4991230;28;20482;-74
2023/05/10 05:58:30;;;;;;;14.27;13.77;;;17.60;99.90;;;;;;4984804;28;21055;-75
2023/05/10 06:00:57;;;;;;;13.80;13.40;;;17.70;99.90;;;;;;4990363;28;20549;-74
2023/05/10 06:03:23;;;;;;;13.23;12.83;;;17.70;99.90;;;;;;4991265;28;20469;-74
2023/05/10 06:05:51;;;;;;;13.80;13.30;;;17.90;99.90;;;;;;4990089;28;20451;-74
2023/05/10 06:08:17;;;;;;;15.30;14.70;;;17.80;99.90;;;;;;4989844;28;20454;-75
2023/05/10 06:10:45;;;;;;;14.60;14.10;;;17.90;99.90;;;;;;4989992;28;20466;-75
2023/05/10 06:13:13;;;;;;;14.07;13.63;;;17.70;99.90;;;;;;4990747;28;20490;-75
2023/05/10 06:15:40;;;;;;;14.80;14.20;;;17.80;99.90;;;;;;4990565;28;20463;-74
2023/05/10 06:18:06;;;;;;;13.80;13.30;;;17.50;99.90;;;;;;4990737;28;20477;-76
2023/05/10 06:20:33;;;;;;;13.90;13.50;;;17.40;99.90;;;;;;4989696;28;20461;-75
2023/05/10 06:23:00;;;;;;;14.50;13.80;;;17.50;99.90;;;;;;4990728;28;20459;-76
2023/05/10 06:25:27;;;;;;;14.00;13.20;;;17.40;99.90;;;;;;4990248;28;20459;-75
2023/05/10 06:27:57;;;;;;;15.17;14.47;;;17.60;99.90;;;;;;4990780;28;20462;-74
2023/05/10 06:30:27;;;;;;;14.90;14.40;;;17.70;99.90;;;;;;4990128;28;20581;-75
2023/05/10 06:32:55;;;;;;;13.80;13.40;;;18.00;99.90;;;;;;4990394;28;20486;-75
2023/05/10 06:35:22;;;;;;;14.33;13.83;;;18.50;99.90;;;;;;4989701;28;20471;-74
2023/05/10 06:37:48;;;;;;;14.40;13.90;;;18.10;99.90;;;;;;4989906;28;20489;-75
2023/05/10 06:40:15;;;;;;;14.60;14.10;;;17.80;99.90;;;;;;4990513;28;20486;-75
2023/05/10 06:42:43;;;;;;;14.77;14.27;;;17.80;99.90;;;;;;4990636;28;20451;-75
2023/05/10 06:45:11;;;;;;;14.33;13.80;;;17.60;99.90;;;;;;4989862;28;20880;-75
2023/05/10 06:47:39;;;;;;;16.20;15.60;;;17.60;99.90;;;;;;4990491;28;20459;-76
2023/05/10 06:50:07;;;;;;;17.33;16.73;;;17.30;99.90;;;;;;4990148;28;20454;-73
2023/05/10 06:52:34;;;;;;;16.87;16.07;;;17.00;99.90;;;;;;4989915;28;20578;-74
2023/05/10 06:55:04;;;;;;;15.30;14.80;;;16.90;99.90;;;;;;4988100;28;21012;-75
2023/05/10 06:57:33;;;;;;;16.37;15.77;;;16.60;99.90;;;;;;4989463;28;20545;-75
2023/05/10 07:00:00;;;;;;;16.40;15.70;;;16.30;99.90;;;;;;4990312;28;20469;-75
2023/05/10 07:02:27;;;;;;;15.93;15.37;;;16.40;99.90;;;;;;4990895;28;20446;-75
2023/05/10 07:04:55;;;;;;;15.20;14.70;;;16.50;99.90;;;;;;4993727;28;20940;-76
2023/05/10 07:07:22;;;;;;;15.27;14.60;;;16.50;99.90;;;;;;4994526;28;20466;-76
2023/05/10 07:09:49;;;;;;;15.73;15.03;;;16.60;99.90;;;;;;4993930;28;20461;-75
2023/05/10 07:12:16;;;;;;;14.40;13.90;;;16.60;99.90;;;;;;4993449;28;20636;-75
2023/05/10 12:51:47;;;;;;;10.80;10.40;;;21.30;96.10;;;;;;5261405;23;20485;-75
2023/05/10 12:54:13;;;;;;;11.30;10.90;;;21.10;96.60;;;;;;4931383;29;20493;-74
2023/05/10 12:56:40;;;;;;;10.60;10.30;;;20.80;95.40;;;;;;4932501;29;20462;-75
2023/05/10 12:59:07;;;;;;;11.57;11.07;;;20.40;94.60;;;;;;4930815;29;20501;-75
2023/05/10 13:01:36;;;;;;;12.20;11.60;;;20.30;95.10;;;;;;4932641;29;21019;-75
2023/05/10 13:04:02;;;;;;;10.60;10.20;;;20.20;95.00;;;;;;4932894;29;20449;-75
2023/05/10 13:06:29;;;;;;;10.43;9.93;;;19.80;94.90;;;;;;4932705;29;20457;-75
2023/05/10 13:08:57;;;;;;;12.27;11.43;;;19.80;95.70;;;;;;4933249;29;20515;-74
2023/05/10 13:11:24;;;;;;;11.83;11.43;;;19.60;95.50;;;;;;4933226;29;20468;-75
2023/05/10 13:13:50;;;;;;;12.90;12.43;;;19.80;96.10;;;;;;4933133;29;20548;-75
2023/05/10 13:16:17;;;;;;;11.13;10.70;;;19.70;95.90;;;;;;4932715;29;20446;-75
2023/05/10 13:18:44;;;;;;;10.80;10.40;;;19.60;96.60;;;;;;4932712;29;20457;-74
2023/05/10 13:21:11;;;;;;;10.27;9.97;;;19.60;96.70;;;;;;4932976;29;20461;-74
2023/05/10 13:23:37;;;;;;;12.70;12.10;;;19.40;97.20;;;;;;4933097;29;20939;-74
2023/05/10 13:26:05;;;;;;;10.43;10.13;;;19.50;97.30;;;;;;4932857;29;20963;-75
2023/05/10 13:28:32;;;;;;;10.63;10.20;;;19.80;97.40;;;;;;4932733;29;20453;-75
2023/05/10 13:30:59;;;;;;;10.93;10.53;;;19.80;97.30;;;;;;4932714;29;20453;-75
2023/05/10 13:33:26;;;;;;;10.60;10.20;;;19.70;97.30;;;;;;4932578;29;20517;-75
2023/05/10 13:35:53;;;;;;;11.37;10.67;;;19.80;97.60;;;;;;4932629;29;20461;-73
2023/05/10 13:38:20;;;;;;;10.47;9.83;;;20.10;96.80;;;;;;4932671;29;20459;-74
2023/05/10 13:40:46;;;;;;;10.87;10.40;;;20.50;96.20;;;;;;4932566;29;20564;-72
2023/05/10 13:43:15;;;;;;;11.90;11.30;;;20.60;95.40;;;;;;4932728;29;20452;-74
2023/05/10 13:45:41;;;;;;;11.83;11.30;;;20.80;94.60;;;;;;4932616;29;20947;-75
2023/05/10 13:48:08;;;;;;;11.70;11.30;;;20.90;94.80;;;;;;4932804;29;20453;-75
2023/05/10 13:50:35;;;;;;;11.90;11.43;;;20.90;94.60;;;;;;4932283;29;20505;-74
2023/05/10 13:53:01;;;;;;;11.23;10.93;;;21.20;93.80;;;;;;4932324;29;20516;-75
2023/05/10 13:55:28;;;;;;;10.87;10.47;;;21.10;93.30;;;;;;4932397;29;20449;-74
2023/05/10 13:57:55;;;;;;;11.77;11.37;;;20.70;93.50;;;;;;4932555;29;20453;-73
2023/05/10 14:00:23;;;;;;;11.27;10.63;;;20.90;94.30;;;;;;4932391;29;21007;-74
2023/05/10 14:02:50;;;;;;;10.87;10.47;;;20.80;94.30;;;;;;4932442;29;20510;-74
2023/05/10 14:05:16;;;;;;;11.40;10.90;;;20.90;94.00;;;;;;4932555;29;21152;-73
2023/05/10 14:07:43;;;;;;;12.40;12.00;;;21.30;93.50;;;;;;4930439;29;20469;-73
2023/05/10 14:10:10;;;;;;;12.07;11.57;;;21.30;92.90;;;;;;4937421;28;20457;-75
2023/05/10 14:12:37;;;;;;;11.10;10.67;;;21.20;92.60;;;;;;4954891;28;20489;-75
2023/05/10 14:15:06;;;;;;;11.17;10.70;;;21.10;92.80;;;;;;4954892;28;20456;-74
2023/05/10 14:17:34;;;;;;;12.10;11.60;;;21.30;92.60;;;;;;4954983;28;20824;-74
2023/05/10 14:20:01;;;;;;;12.00;11.47;;;21.40;91.90;;;;;;4954761;28;20706;-74
2023/05/10 14:22:27;;;;;;;11.10;10.80;;;21.70;92.00;;;;;;4954858;28;20460;-75
2023/05/10 14:24:54;;;;;;;12.00;11.40;;;22.00;92.30;;;;;;4954899;28;20942;-74
2023/05/10 14:27:21;;;;;;;12.20;11.70;;;22.30;90.70;;;;;;4954788;28;20452;-74
2023/05/10 14:29:48;;;;;;;11.97;11.47;;;22.00;90.80;;;;;;4949453;28;20871;-73
2023/05/10 14:32:15;;;;;;;11.33;10.93;;;21.70;89.20;;;;;;4954433;28;20445;-75
2023/05/10 14:34:43;;;;;;;10.87;10.47;;;21.70;89.70;;;;;;4954650;28;20492;-73
2023/05/10 14:37:11;;;;;;;11.43;11.03;;;21.30;89.50;;;;;;4954771;28;20451;-74
2023/05/10 14:39:37;;;;;;;11.00;10.60;;;21.50;89.60;;;;;;4954823;28;20475;-74
2023/05/10 14:42:04;;;;;;;11.50;11.10;;;21.70;87.70;;;;;;4954325;28;21005;-75
2023/05/10 14:44:31;;;;;;;11.93;11.40;;;21.80;87.20;;;;;;4954418;28;20828;-74
2023/05/10 14:46:58;;;;;;;10.87;10.47;;;21.90;86.70;;;;;;4954113;28;20840;-74
2023/05/10 14:49:25;;;;;;;11.10;10.60;;;22.20;86.30;;;;;;4954457;28;20469;-74
2023/05/10 14:51:53;;;;;;;10.83;10.50;;;22.10;84.90;;;;;;4954329;28;21008;-75
2023/05/10 14:54:20;;;;;;;10.73;10.37;;;21.80;86.70;;;;;;4954257;28;20492;-73
2023/05/10 14:56:49;;;;;;;11.70;11.17;;;21.80;87.10;;;;;;4954160;28;20464;-74
2023/05/10 14:59:16;;;;;;;12.00;11.50;;;21.60;86.50;;;;;;4953825;28;20458;-74
2023/05/10 15:01:42;;;;;;;11.83;11.33;;;21.50;87.30;;;;;;4954534;28;20448;-75
2023/05/10 15:04:09;;;;;;;11.83;11.30;;;21.60;87.00;;;;;;4954566;28;20456;-74
2023/05/10 15:06:36;;;;;;;11.83;11.10;;;21.20;87.80;;;;;;4954517;28;20885;-75
2023/05/10 15:09:04;;;;;;;11.03;10.53;;;21.10;89.50;;;;;;4954520;28;20468;-75
2023/05/10 15:11:31;;;;;;;11.90;11.50;;;21.10;89.50;;;;;;4954200;28;20986;-75
2023/05/10 15:13:58;;;;;;;12.30;11.80;;;20.90;89.50;;;;;;4954098;28;20496;-75
2023/05/10 15:16:24;;;;;;;12.20;11.70;;;20.80;87.70;;;;;;4954389;28;20463;-74
2023/05/10 15:18:51;;;;;;;10.13;9.77;;;20.80;88.50;;;;;;4954229;28;20484;-74
2023/05/10 15:21:18;;;;;;;10.00;9.70;;;20.50;88.80;;;;;;4954233;28;20507;-74
2023/05/10 15:23:44;;;;;;;11.10;10.57;;;20.20;88.10;;;;;;4953144;28;20459;-75
2023/05/10 15:26:12;;;;;;;12.00;11.40;;;20.20;91.00;;;;;;4954230;28;20488;-74
2023/05/10 15:28:39;;;;;;;12.47;11.97;;;20.40;90.90;;;;;;4954325;28;20487;-75
2023/05/10 15:31:05;;;;;;;11.30;10.90;;;20.50;90.80;;;;;;4954005;28;20515;-75
2023/05/10 15:33:32;;;;;;;11.57;11.07;;;20.50;90.60;;;;;;4953788;28;20492;-73
2023/05/10 15:35:59;;;;;;;10.90;10.50;;;20.70;90.80;;;;;;4953845;28;20945;-76
2023/05/10 15:38:26;;;;;;;10.97;10.27;;;20.60;90.60;;;;;;4954420;28;20492;-76
2023/05/10 15:40:57;;;;;;;11.83;11.20;;;20.40;91.00;;;;;;4954003;28;20464;-75
2023/05/10 15:43:25;;;;;;;10.80;10.40;;;20.60;91.00;;;;;;4954218;28;20457;-75
2023/05/10 15:45:51;;;;;;;10.97;10.50;;;20.60;90.90;;;;;;4953839;28;20969;-75
2023/05/10 15:48:18;;;;;;;11.70;11.30;;;20.50;91.80;;;;;;4953889;28;20987;-74
2023/05/10 15:50:45;;;;;;;11.93;11.40;;;20.60;91.70;;;;;;4953433;28;21053;-74
2023/05/10 15:53:11;;;;;;;10.47;10.07;;;20.60;91.40;;;;;;4953757;28;20469;-75
2023/05/10 15:55:38;;;;;;;11.20;10.80;;;20.80;91.70;;;;;;4953964;28;20464;-75
2023/05/10 15:58:05;;;;;;;10.57;10.07;;;20.90;91.10;;;;;;4935686;28;20486;-75
2023/05/10 16:00:33;;;;;;;9.83;9.23;;;20.70;90.70;;;;;;4933852;29;21073;-74
2023/05/10 16:02:59;;;;;;;10.43;10.03;;;20.40;90.60;;;;;;4934181;29;20456;-75
2023/05/10 16:05:30;;;;;;;12.30;11.73;;;20.20;91.10;;;;;;4934340;29;20449;-75
2023/05/10 16:07:57;;;;;;;12.40;11.43;;;20.40;91.70;;;;;;4934264;29;20464;-75
2023/05/10 16:10:24;;;;;;;10.03;9.73;;;20.40;91.70;;;;;;4934332;29;20830;-75
2023/05/10 16:12:50;;;;;;;11.57;11.10;;;20.50;92.00;;;;;;4934034;29;20991;-75
2023/05/10 16:15:17;;;;;;;11.37;10.87;;;20.50;91.90;;;;;;4934125;29;20500;-75
2023/05/10 16:17:45;;;;;;;11.67;11.07;;;20.50;92.00;;;;;;4933844;29;20968;-74
2023/05/10 16:20:12;;;;;;;11.13;10.73;;;20.40;92.30;;;;;;4933925;29;20829;-74
2023/05/10 16:22:38;;;;;;;10.60;10.20;;;20.20;91.80;;;;;;4933868;29;20536;-75
2023/05/10 16:25:06;;;;;;;10.23;9.83;;;20.20;91.90;;;;;;4932063;29;20508;-76
2023/05/10 16:27:33;;;;;;;11.90;11.50;;;20.20;91.60;;;;;;4934113;29;20970;-75
2023/05/10 16:29:59;;;;;;;10.70;10.40;;;20.40;91.30;;;;;;4933722;29;21007;-75
2023/05/10 16:32:26;;;;;;;11.70;11.30;;;20.20;90.80;;;;;;4933562;29;20783;-74
2023/05/10 16:34:54;;;;;;;11.63;10.77;;;20.20;90.80;;;;;;4933356;29;20485;-75
2023/05/10 16:37:21;;;;;;;11.20;10.90;;;20.40;90.50;;;;;;4933484;29;20449;-73
2023/05/10 16:39:47;;;;;;;11.30;10.80;;;20.00;90.40;;;;;;4933496;29;20469;-73
2023/05/10 16:42:14;;;;;;;11.30;10.60;;;19.80;90.80;;;;;;4933497;29;21018;-74
2023/05/10 16:44:41;;;;;;;10.50;9.90;;;19.70;90.70;;;;;;4933771;29;20465;-74
2023/05/10 16:47:07;;;;;;;11.00;10.50;;;19.80;90.90;;;;;;4933540;29;20542;-74
2023/05/10 16:49:36;;;;;;;11.33;10.83;;;19.80;90.90;;;;;;4933333;29;20473;-75
2023/05/10 16:52:04;;;;;;;10.50;10.20;;;19.80;91.00;;;;;;4933449;29;20493;-75
2023/05/10 16:54:30;;;;;;;11.37;10.87;;;19.70;90.70;;;;;;4933175;29;20501;-75
2023/05/10 16:56:57;;;;;;;12.27;11.67;;;19.50;90.80;;;;;;4933321;29;20457;-72
2023/05/10 16:59:24;;;;;;;11.17;10.77;;;19.30;91.20;;;;;;4932653;29;20867;-73
2023/05/10 17:01:51;;;;;;;10.23;9.93;;;19.10;91.40;;;;;;4936049;28;20460;-73
2023/05/10 17:04:18;;;;;;;10.03;9.73;;;19.00;91.40;;;;;;4952237;28;20508;-74
2023/05/10 17:06:45;;;;;;;10.97;10.53;;;19.10;91.40;;;;;;4952038;28;20465;-73
2023/05/10 17:09:13;;;;;;;9.80;9.50;;;19.00;92.00;;;;;;4952425;28;20885;-75
2023/05/10 17:11:40;;;;;;;11.23;10.87;;;19.10;91.80;;;;;;4952518;28;20544;-73
2023/05/10 17:14:07;;;;;;;10.67;10.27;;;19.10;91.70;;;;;;4950576;28;20489;-74
2023/05/10 17:16:34;;;;;;;10.97;10.50;;;19.30;91.60;;;;;;4932514;29;20453;-75
2023/05/10 17:19:01;;;;;;;12.50;12.00;;;19.00;92.40;;;;;;4933043;29;20505;-75
2023/05/10 17:21:27;;;;;;;11.50;11.00;;;18.80;93.10;;;;;;4933097;29;20532;-75
2023/05/10 17:23:54;;;;;;;11.40;11.00;;;18.70;93.40;;;;;;4932917;29;20869;-74
2023/05/10 17:26:22;;;;;;;10.77;10.47;;;18.80;93.00;;;;;;4933059;29;20683;-74
2023/05/10 17:28:49;;;;;;;10.60;10.07;;;18.80;93.40;;;;;;4932999;29;20449;-74
2023/05/10 17:31:15;;;;;;;11.00;10.60;;;18.80;93.60;;;;;;4932807;29;20454;-73
2023/05/10 17:33:42;;;;;;;11.23;10.73;;;18.60;93.50;;;;;;4932955;29;20544;-75
2023/05/10 17:36:09;;;;;;;11.50;10.90;;;18.30;94.20;;;;;;4930857;29;20496;-75
2023/05/10 17:38:36;;;;;;;11.67;11.00;;;18.40;94.30;;;;;;4931461;29;20544;-73
2023/05/10 17:41:02;;;;;;;11.00;10.30;;;18.10;94.70;;;;;;4930842;29;20484;-74
2023/05/10 17:43:30;;;;;;;10.50;10.10;;;18.10;95.00;;;;;;4931240;29;20540;-74
2023/05/10 17:45:57;;;;;;;10.40;10.00;;;17.80;97.20;;;;;;4942861;28;20814;-72
2023/05/10 17:48:24;;;;;;;10.73;10.27;;;17.70;99.90;;;;;;4949760;28;20441;-72
2023/05/10 17:50:51;;;;;;;11.77;11.37;;;17.20;99.90;;;;;;4951292;28;20484;-74
2023/05/10 17:53:18;;;;;;;10.90;10.60;;;17.40;99.90;;;;;;4951480;28;20658;-73
2023/05/10 17:55:44;;;;;;;10.37;10.00;;;17.10;99.90;;;;;;4951210;28;21006;-73
2023/05/10 17:58:12;;;;;;;10.50;10.13;;;17.10;99.90;;;;;;4951597;28;20503;-73
2023/05/10 18:00:40;;;;;;;10.40;10.00;;;17.10;99.90;;;;;;4951939;28;20476;-74
2023/05/10 18:03:07;;;;;;;10.90;10.50;;;17.30;99.90;;;;;;4951824;28;20892;-73
2023/05/10 18:05:35;;;;;;;11.70;11.30;;;16.90;99.90;;;;;;4951369;28;20448;-72
2023/05/10 18:08:03;;;;;;;10.70;10.30;;;16.90;99.90;;;;;;4950733;28;20476;-73
2023/05/10 18:10:30;;;;;;;11.47;11.10;;;16.60;99.90;;;;;;4951231;28;20860;-74
2023/05/10 18:12:57;;;;;;;10.90;10.60;;;16.60;99.90;;;;;;4951350;28;20445;-73
2023/05/10 18:15:24;;;;;;;11.20;10.80;;;16.80;99.90;;;;;;4946281;28;20540;-73
2023/05/10 18:17:52;;;;;;;11.97;11.57;;;16.30;99.90;;;;;;4950375;28;20483;-73
2023/05/10 18:20:19;;;;;;;11.00;10.50;;;16.00;99.90;;;;;;4951907;28;20457;-72
2023/05/10 18:22:45;;;;;;;11.47;10.60;;;16.30;99.90;;;;;;4951899;28;20453;-75
2023/05/10 18:25:12;;;;;;;12.10;11.70;;;16.20;99.90;;;;;;4951897;28;20456;-74
2023/05/10 18:27:39;;;;;;;11.10;10.60;;;16.10;99.90;;;;;;4951869;28;21009;-73
2023/05/10 18:30:08;;;;;;;11.97;11.57;;;16.20;99.90;;;;;;4951824;28;20465;-74
2023/05/10 18:32:37;;;;;;;10.33;10.00;;;16.20;99.90;;;;;;4951826;28;20499;-73
2023/05/10 18:35:05;;;;;;;11.13;10.73;;;16.10;99.90;;;;;;4951604;28;20810;-73
2023/05/10 18:37:32;;;;;;;10.73;10.33;;;16.00;99.90;;;;;;4951688;28;20919;-73
2023/05/10 18:39:59;;;;;;;11.57;10.97;;;16.10;99.90;;;;;;4951881;28;20487;-74
2023/05/10 18:42:26;;;;;;;10.33;10.00;;;15.90;99.90;;;;;;4952078;28;20452;-73
2023/05/10 18:44:55;;;;;;;10.60;10.20;;;15.90;99.90;;;;;;4951864;28;20452;-73
2023/05/10 18:47:21;;;;;;;10.87;9.87;;;15.70;99.90;;;;;;4951603;28;20556;-73
2023/05/10 18:49:48;;;;;;;11.87;11.27;;;15.80;99.90;;;;;;4951704;28;20871;-73
2023/05/10 18:52:16;;;;;;;11.57;11.27;;;15.70;99.90;;;;;;4951609;28;21005;-73
2023/05/10 18:54:43;;;;;;;12.17;11.77;;;15.60;99.90;;;;;;4951840;28;20492;-72
2023/05/10 18:57:09;;;;;;;11.30;10.80;;;15.40;99.90;;;;;;4953243;28;20459;-72
2023/05/10 18:59:36;;;;;;;10.60;10.30;;;15.50;99.90;;;;;;4955192;28;20875;-71
2023/05/10 19:02:03;;;;;;;10.90;10.50;;;15.40;99.90;;;;;;4954907;28;20456;-73
2023/05/10 19:04:30;;;;;;;10.20;9.90;;;15.30;99.90;;;;;;4954602;28;20460;-73
2023/05/10 19:06:56;;;;;;;10.20;9.90;;;15.40;99.90;;;;;;4955088;28;20468;-72
2023/05/10 19:09:26;;;;;;;11.77;11.17;;;15.20;99.90;;;;;;4955023;28;20467;-72
2023/05/10 19:11:53;;;;;;;11.33;10.93;;;15.40;99.90;;;;;;4954647;28;20501;-74
2023/05/10 19:14:20;;;;;;;10.97;10.53;;;15.20;99.90;;;;;;4954836;28;20511;-73
2023/05/10 19:16:47;;;;;;;10.47;10.17;;;15.20;99.90;;;;;;4954768;28;20675;-75
2023/05/10 19:19:13;;;;;;;10.70;10.30;;;15.10;99.90;;;;;;4954775;28;21089;-73
2023/05/10 19:21:40;;;;;;;10.87;10.37;;;15.10;99.90;;;;;;4955037;28;20475;-73
2023/05/10 19:24:07;;;;;;;11.33;10.83;;;15.10;99.90;;;;;;4954708;28;20840;-74
2023/05/10 19:26:35;;;;;;;11.13;10.73;;;14.90;99.90;;;;;;4953961;28;20463;-73
2023/05/10 19:29:02;;;;;;;11.87;11.13;;;14.90;99.90;;;;;;4953992;28;21004;-72
2023/05/10 19:31:28;;;;;;;12.13;11.53;;;14.80;99.90;;;;;;4954480;28;20464;-74
2023/05/10 19:33:55;;;;;;;11.07;10.70;;;14.80;99.90;;;;;;4954706;28;20511;-73
2023/05/10 19:36:22;;;;;;;10.60;10.23;;;14.70;99.90;;;;;;4954391;28;20488;-72
2023/05/10 19:38:48;;;;;;;11.90;11.50;;;14.80;99.90;;;;;;4954448;28;20821;-72
2023/05/10 19:41:15;;;;;;;11.80;11.33;;;14.80;99.90;;;;;;4954291;28;20466;-72
2023/05/10 19:43:43;;;;;;;11.20;10.80;;;14.80;99.90;;;;;;4954305;28;20453;-72
2023/05/10 19:46:10;;;;;;;12.27;11.63;;;14.80;99.90;;;;;;4954519;28;20459;-74
2023/05/10 19:48:37;;;;;;;11.37;10.97;;;14.80;99.90;;;;;;4951569;28;20441;-71
2023/05/10 19:51:05;;;;;;;11.23;10.80;;;14.80;99.90;;;;;;4952943;28;20508;-72
2023/05/10 19:53:32;;;;;;;11.33;10.93;;;14.90;99.90;;;;;;4952986;28;21006;-72
2023/05/10 19:56:03;;;;;;;11.43;11.10;;;15.00;99.90;;;;;;4952862;28;20485;-73
2023/05/10 19:58:29;;;;;;;12.20;11.60;;;14.90;99.90;;;;;;4952879;28;20460;-73
2023/05/10 20:00:57;;;;;;;11.80;11.40;;;14.90;99.90;;;;;;4952921;28;20456;-73
2023/05/10 20:03:24;;;;;;;13.17;12.67;;;15.00;99.90;;;;;;4953072;28;20464;-73
2023/05/10 20:05:51;;;;;;;11.47;11.03;;;14.90;99.90;;;;;;4952985;28;20449;-74
2023/05/10 20:08:18;;;;;;;11.93;11.17;;;14.80;99.90;;;;;;4952568;28;20453;-76
2023/05/10 20:10:44;;;;;;;13.03;12.27;;;14.50;99.90;;;;;;4953467;28;20533;-77
2023/05/10 20:13:11;;;;;;;13.37;12.63;;;14.50;99.90;;;;;;4953525;28;20527;-76
2023/05/10 20:15:38;;;;;;;12.20;11.20;;;14.60;99.90;;;;;;4953351;29;20833;-73
2023/05/10 20:18:06;;;;;;;11.60;11.10;;;14.50;99.90;;;;;;4953328;28;20468;-73
2023/05/10 20:20:33;;;;;;;11.70;10.97;;;14.40;99.90;;;;;;4950694;28;20659;-72
2023/05/10 20:22:59;;;;;;;11.00;10.40;;;14.60;99.90;;;;;;4951677;28;20453;-74
2023/05/10 20:25:26;;;;;;;12.13;11.63;;;14.60;99.90;;;;;;4952601;28;20516;-75
2023/05/10 20:27:53;;;;;;;14.83;13.83;;;14.60;99.90;;;;;;4953359;28;20843;-75
2023/05/10 20:30:20;;;;;;;11.73;11.13;;;14.60;99.90;;;;;;4952852;29;20448;-75
2023/05/10 20:32:46;;;;;;;11.97;11.27;;;14.70;99.90;;;;;;4952751;28;20571;-75
2023/05/10 20:35:14;;;;;;;12.20;11.50;;;14.80;99.90;;;;;;4952496;28;20489;-73
2023/05/10 20:37:41;;;;;;;13.70;12.70;;;14.80;99.90;;;;;;4952998;28;20943;-72
2023/05/10 20:40:09;;;;;;;11.53;10.93;;;14.80;99.90;;;;;;4952946;28;20449;-72
2023/05/10 20:42:36;;;;;;;12.37;11.67;;;14.80;99.90;;;;;;4952610;28;20444;-73
2023/05/10 20:45:03;;;;;;;12.17;11.67;;;14.70;99.90;;;;;;4952573;28;20492;-73
2023/05/10 20:47:31;;;;;;;14.37;13.77;;;14.70;99.90;;;;;;4952450;28;20460;-73
2023/05/10 20:49:57;;;;;;;13.40;12.70;;;14.60;99.90;;;;;;4952293;28;20464;-73
2023/05/10 20:52:25;;;;;;;12.20;11.60;;;14.60;99.90;;;;;;4952394;28;20527;-73
2023/05/10 20:54:52;;;;;;;12.30;11.90;;;14.40;99.90;;;;;;4952499;28;20484;-73
2023/05/10 20:57:19;;;;;;;13.13;12.63;;;14.50;99.90;;;;;;4952291;28;20464;-72
2023/05/10 20:59:46;;;;;;;13.83;12.93;;;14.50;99.90;;;;;;4952285;28;20464;-73
2023/05/10 21:02:13;;;;;;;12.00;11.60;;;14.40;99.90;;;;;;4952271;28;20449;-73
2023/05/10 21:04:40;;;;;;;11.07;10.67;;;14.50;99.90;;;;;;4953480;28;20453;-73
2023/05/10 21:07:07;;;;;;;11.30;10.80;;;14.40;99.90;;;;;;4952682;28;20539;-72
2023/05/10 21:09:35;;;;;;;12.90;12.40;;;14.50;99.90;;;;;;4952691;28;20457;-73
2023/05/10 21:12:02;;;;;;;11.80;11.30;;;14.50;99.90;;;;;;4947934;28;20459;-72
2023/05/10 21:14:29;;;;;;;10.73;10.43;;;14.60;99.90;;;;;;4952080;28;20487;-72
2023/05/10 21:16:55;;;;;;;10.17;9.67;;;14.60;99.90;;;;;;4952054;28;20923;-73
2023/05/10 21:19:22;;;;;;;11.43;10.97;;;14.60;99.90;;;;;;4952019;28;20437;-72
2023/05/10 21:21:49;;;;;;;10.77;10.37;;;14.60;99.90;;;;;;4951327;28;20461;-73
2023/05/10 21:24:15;;;;;;;10.20;9.90;;;14.60;99.90;;;;;;4952393;28;20487;-74
2023/05/10 21:26:43;;;;;;;9.87;9.47;;;14.60;99.90;;;;;;4952485;28;20449;-73
2023/05/10 21:29:10;;;;;;;9.77;9.47;;;14.50;99.90;;;;;;4952875;28;20455;-73
2023/05/10 21:31:37;;;;;;;11.27;10.87;;;14.30;99.90;;;;;;4952630;28;20516;-72
2023/05/10 21:34:03;;;;;;;11.23;10.83;;;14.70;99.90;;;;;;4952507;28;20464;-72
2023/05/10 21:36:30;;;;;;;11.20;10.70;;;14.70;99.90;;;;;;4952144;28;20551;-73
2023/05/10 21:38:57;;;;;;;10.10;9.80;;;14.60;99.90;;;;;;4952175;28;20460;-74
2023/05/10 21:41:24;;;;;;;10.17;9.77;;;14.60;99.90;;;;;;4952297;28;20454;-74